createdAt,value
2022-11-23T00:00:45.876Z,17.42
2022-11-23T00:01:47.919Z,15.02
2022-11-23T00:02:54.164Z,18.05
2022-11-23T00:03:59.706Z,18.24
2022-11-23T00:05:01.591Z,16.91
2022-11-23T00:06:05.902Z,16.06
2022-11-23T00:07:07.848Z,15.75
2022-11-23T00:08:09.764Z,18.14
2022-11-23T00:09:11.859Z,15.17
2022-11-23T00:10:14.528Z,16.99
2022-11-23T00:11:18.625Z,17.40
2022-11-23T00:12:20.543Z,16.70
2022-11-23T00:13:22.388Z,16.73
2022-11-23T00:14:26.945Z,16.85
2022-11-23T00:15:28.919Z,16.83
2022-11-23T00:16:31.379Z,19.01
2022-11-23T00:17:33.292Z,17.79
2022-11-23T00:18:36.488Z,16.19
2022-11-23T00:19:38.458Z,15.49
2022-11-23T00:20:40.411Z,18.68
2022-11-23T00:21:42.267Z,18.96
2022-11-23T00:22:44.263Z,17.25
2022-11-23T00:23:46.616Z,21.37
2022-11-23T00:24:48.663Z,19.43
2022-11-23T00:25:51.849Z,19.83
2022-11-23T00:26:53.820Z,19.32
2022-11-23T00:27:55.654Z,17.72
2022-11-23T00:28:57.517Z,18.19
2022-11-23T00:29:59.393Z,18.83
2022-11-23T00:31:01.384Z,16.44
2022-11-23T00:32:03.934Z,19.16
2022-11-23T00:33:05.812Z,17.28
2022-11-23T00:34:07.779Z,17.79
2022-11-23T00:35:09.736Z,17.92
2022-11-23T00:36:14.391Z,16.43
2022-11-23T00:37:18.360Z,18.15
2022-11-23T00:38:20.238Z,16.53
2022-11-23T00:39:22.620Z,17.03
2022-11-23T00:40:24.599Z,17.83
2022-11-23T00:41:28.012Z,17.53
2022-11-23T00:42:33.834Z,15.51
2022-11-23T00:43:34.576Z,18.40
2022-11-23T00:44:36.450Z,15.79
2022-11-23T00:45:38.326Z,14.83
2022-11-23T00:46:40.929Z,17.12
2022-11-23T00:47:42.964Z,16.26
2022-11-23T00:48:48.211Z,15.20
2022-11-23T00:49:50.096Z,14.82
2022-11-23T00:50:52.069Z,14.91
2022-11-23T00:51:53.937Z,15.26
2022-11-23T00:52:55.791Z,15.12
2022-11-23T00:53:59.345Z,14.82
2022-11-23T00:55:01.220Z,13.99
2022-11-23T00:56:03.791Z,15.03
2022-11-23T00:57:05.657Z,14.99
2022-11-23T00:58:07.520Z,17.25
2022-11-23T00:59:09.389Z,15.59
2022-11-23T01:00:14.212Z,15.59
2022-11-23T01:01:18.079Z,14.03
2022-11-23T01:02:20.216Z,16.05
2022-11-23T01:03:22.069Z,13.80
2022-11-23T01:04:23.971Z,15.23
2022-11-23T01:05:25.816Z,14.67
2022-11-23T01:06:30.280Z,16.01
2022-11-23T01:07:32.356Z,14.39
2022-11-23T01:08:34.784Z,15.93
2022-11-23T01:09:37.009Z,15.25
2022-11-23T01:10:39.200Z,15.23
2022-11-23T01:11:41.167Z,16.29
2022-11-23T01:12:43.036Z,17.88
2022-11-23T01:13:44.921Z,13.77
2022-11-23T01:14:46.793Z,14.77
2022-11-23T01:15:50.309Z,15.08
2022-11-23T01:16:52.393Z,15.09
2022-11-23T01:17:54.248Z,13.36
2022-11-23T01:18:58.748Z,14.09
2022-11-23T01:20:00.849Z,13.69
2022-11-23T01:21:03.130Z,15.67
2022-11-23T01:22:05.842Z,14.57
2022-11-23T01:23:07.758Z,14.47
2022-11-23T01:26:30.220Z,12.96
2022-11-23T01:27:32.092Z,14.81
2022-11-23T01:28:35.450Z,13.36
2022-11-23T01:29:37.366Z,15.92
2022-11-23T01:30:39.332Z,15.54
2022-11-23T01:31:46.129Z,14.25
2022-11-23T01:32:45.135Z,13.08
2022-11-23T01:33:47.810Z,13.37
2022-11-23T01:34:49.692Z,14.35
2022-11-23T01:35:51.541Z,14.91
2022-11-23T01:36:53.550Z,13.74
2022-11-23T01:37:56.143Z,14.81
2022-11-23T01:39:00.018Z,14.51
2022-11-23T01:40:01.992Z,13.21
2022-11-23T01:41:06.310Z,13.35
2022-11-23T01:42:08.212Z,13.39
2022-11-23T01:43:15.460Z,14.13
2022-11-23T01:44:32.763Z,13.58
2022-11-23T01:45:46.546Z,15.38
2022-11-23T01:46:48.670Z,12.62
2022-11-23T01:47:50.529Z,14.40
2022-11-23T01:48:59.027Z,14.90
2022-11-23T01:50:01.114Z,15.68
2022-11-23T01:51:08.523Z,14.11
2022-11-23T01:52:23.010Z,14.97
2022-11-23T01:53:27.690Z,15.34
2022-11-23T01:54:33.358Z,13.15
2022-11-23T01:55:36.272Z,12.18
2022-11-23T01:56:45.041Z,14.65
2022-11-23T01:57:47.661Z,13.74
2022-11-23T01:58:53.875Z,15.35
2022-11-23T01:59:56.772Z,14.36
2022-11-23T02:00:59.125Z,14.44
2022-11-23T02:02:01.867Z,12.81
2022-11-23T02:03:04.947Z,11.94
2022-11-23T02:04:10.053Z,12.04
2022-11-23T02:05:16.001Z,13.41
2022-11-23T02:06:20.714Z,13.70
2022-11-23T02:07:24.509Z,16.62
2022-11-23T02:08:28.373Z,14.54
2022-11-23T02:09:33.230Z,14.32
2022-11-23T02:10:35.964Z,15.45
2022-11-23T02:11:37.850Z,14.67
2022-11-23T02:12:39.731Z,14.38
2022-11-23T02:13:44.604Z,15.73
2022-11-23T02:14:47.527Z,15.79
2022-11-23T02:15:50.215Z,14.98
2022-11-23T02:16:52.574Z,15.19
2022-11-23T02:17:55.298Z,15.92
2022-11-23T02:18:57.342Z,15.61
2022-11-23T02:20:08.435Z,14.97
2022-11-23T02:21:12.020Z,16.43
2022-11-23T02:22:26.593Z,16.41
2022-11-23T02:23:56.220Z,16.01
2022-11-23T02:25:02.044Z,16.67
2022-11-23T02:28:38.035Z,15.23
2022-11-23T02:29:40.436Z,16.56
2022-11-23T02:30:45.439Z,18.20
2022-11-23T02:31:48.227Z,15.28
2022-11-23T02:32:50.131Z,19.21
2022-11-23T02:33:52.193Z,15.93
2022-11-23T02:34:54.082Z,17.64
2022-11-23T02:35:58.795Z,16.30
2022-11-23T02:37:01.401Z,15.04
2022-11-23T02:38:05.819Z,18.41
2022-11-23T02:39:14.276Z,15.25
2022-11-23T02:42:38.872Z,15.26
2022-11-23T02:43:42.838Z,15.79
2022-11-23T02:45:19.961Z,17.63
2022-11-23T02:46:21.976Z,15.57
2022-11-23T02:47:23.923Z,16.31
2022-11-23T02:48:25.855Z,17.03
2022-11-23T02:49:29.119Z,13.95
2022-11-23T02:50:31.849Z,16.38
2022-11-23T02:51:33.712Z,17.96
2022-11-23T02:52:35.710Z,16.37
2022-11-23T02:53:37.596Z,17.21
2022-11-23T02:54:39.455Z,18.40
2022-11-23T02:55:41.408Z,18.39
2022-11-23T02:56:43.360Z,20.79
2022-11-23T02:57:46.161Z,19.27
2022-11-23T02:58:48.229Z,17.66
2022-11-23T02:59:50.229Z,17.78
2022-11-23T03:00:52.453Z,20.17
2022-11-23T03:01:54.475Z,19.75
2022-11-23T03:02:58.271Z,18.94
2022-11-23T03:04:00.160Z,19.72
2022-11-23T03:05:03.141Z,16.53
2022-11-23T03:06:05.528Z,20.38
2022-11-23T03:07:07.426Z,15.47
2022-11-23T03:08:09.484Z,16.95
2022-11-23T03:09:11.356Z,18.50
2022-11-23T03:10:15.294Z,17.63
2022-11-23T03:11:17.154Z,15.83
2022-11-23T03:12:19.844Z,19.58
2022-11-23T03:13:22.134Z,17.18
2022-11-23T03:14:26.201Z,17.67
2022-11-23T03:15:28.209Z,18.08
2022-11-23T03:16:30.186Z,18.27
2022-11-23T03:17:32.569Z,19.45
2022-11-23T03:18:34.591Z,18.71
2022-11-23T03:19:36.552Z,16.46
2022-11-23T03:20:38.642Z,15.93
2022-11-23T03:21:40.587Z,16.09
2022-11-23T03:22:42.691Z,15.23
2022-11-23T03:23:44.597Z,16.85
2022-11-23T03:24:46.647Z,16.25
2022-11-23T03:25:57.388Z,15.66
2022-11-23T03:27:00.482Z,15.43
2022-11-23T03:28:02.382Z,16.16
2022-11-23T03:29:06.353Z,14.94
2022-11-23T03:30:09.783Z,17.38
2022-11-23T03:31:11.653Z,17.20
2022-11-23T03:32:13.547Z,15.62
2022-11-23T03:33:16.046Z,14.52
2022-11-23T03:34:17.928Z,17.23
2022-11-23T03:35:19.827Z,16.91
2022-11-23T03:36:21.922Z,17.07
2022-11-23T03:37:24.012Z,17.44
2022-11-23T03:38:26.809Z,16.04
2022-11-23T03:39:28.699Z,16.47
2022-11-23T03:40:30.917Z,17.32
2022-11-23T03:41:32.979Z,16.27
2022-11-23T03:42:34.912Z,14.57
2022-11-23T03:43:36.779Z,16.23
2022-11-23T03:44:38.770Z,16.57
2022-11-23T03:45:42.104Z,15.24
2022-11-23T03:46:44.463Z,14.74
2022-11-23T03:47:46.337Z,15.61
2022-11-23T03:48:48.193Z,14.91
2022-11-23T03:49:50.078Z,16.31
2022-11-23T03:50:52.141Z,15.32
2022-11-23T03:51:54.289Z,18.61
2022-11-23T03:52:56.724Z,17.63
2022-11-23T03:53:58.811Z,16.65
2022-11-23T03:55:00.702Z,16.19
2022-11-23T03:56:03.684Z,14.66
2022-11-23T03:57:05.696Z,17.64
2022-11-23T03:58:08.476Z,17.05
2022-11-23T03:59:10.504Z,15.22
2022-11-23T04:00:14.516Z,15.91
2022-11-23T04:01:16.492Z,14.54
2022-11-23T04:02:18.619Z,14.59
2022-11-23T04:03:20.484Z,16.34
2022-11-23T04:04:22.340Z,16.27
2022-11-23T04:05:24.676Z,18.55
2022-11-23T04:06:26.622Z,15.87
2022-11-23T04:07:28.624Z,15.38
2022-11-23T04:08:30.557Z,14.28
2022-11-23T04:09:32.820Z,17.67
2022-11-23T04:10:35.018Z,15.71
2022-11-23T04:11:36.970Z,14.61
2022-11-23T04:12:39.185Z,14.71
2022-11-23T04:13:41.128Z,14.13
2022-11-23T04:14:43.071Z,15.60
2022-11-23T04:15:46.051Z,15.13
2022-11-23T06:00:41.318Z,16.14
2022-11-23T06:01:44.681Z,18.69
2022-11-23T06:02:46.767Z,18.77
2022-11-23T06:03:52.048Z,15.85
2022-11-23T06:04:54.814Z,20.53
2022-11-23T06:05:57.188Z,17.58
2022-11-23T06:06:59.446Z,16.22
2022-11-23T06:08:01.403Z,17.37
2022-11-23T06:09:03.421Z,20.41
2022-11-23T06:10:07.134Z,24.79
2022-11-23T06:11:09.049Z,26.06
2022-11-23T06:12:10.877Z,24.45
2022-11-23T06:13:12.730Z,21.74
2022-11-23T06:14:16.553Z,20.61
2022-11-23T06:15:19.391Z,22.25
2022-11-23T06:16:21.359Z,19.69
2022-11-23T06:17:23.653Z,19.77
2022-11-23T06:18:25.637Z,17.71
2022-11-23T06:19:27.520Z,22.29
2022-11-23T06:20:29.957Z,25.20
2022-11-23T06:21:31.827Z,19.53
2022-11-23T06:22:34.216Z,19.23
2022-11-23T06:23:36.059Z,18.32
2022-11-23T06:24:38.907Z,18.29
2022-11-23T06:25:40.922Z,16.56
2022-11-23T06:26:42.881Z,15.81
2022-11-23T06:27:59.255Z,15.11
2022-11-23T06:29:01.238Z,16.17
2022-11-23T06:30:04.314Z,16.37
2022-11-23T06:31:07.027Z,17.35
2022-11-23T06:32:08.899Z,18.83
2022-11-23T06:33:10.783Z,16.66
2022-11-23T06:34:12.926Z,14.21
2022-11-23T06:35:14.796Z,15.26
2022-11-23T06:36:17.267Z,14.65
2022-11-23T06:37:19.150Z,13.69
2022-11-23T06:38:21.465Z,15.54
2022-11-23T06:39:23.324Z,17.63
2022-11-23T06:40:25.575Z,14.40
2022-11-23T06:41:32.380Z,14.74
2022-11-23T06:42:40.337Z,14.69
2022-11-23T06:43:37.258Z,14.62
2022-11-23T06:44:39.227Z,14.28
2022-11-23T06:45:41.996Z,16.64
2022-11-23T06:46:44.190Z,22.42
2022-11-23T06:47:46.035Z,21.05
2022-11-23T06:48:47.884Z,18.57
2022-11-23T06:49:49.828Z,15.34
2022-11-23T06:50:52.079Z,13.62
2022-11-23T06:51:54.825Z,14.49
2022-11-23T06:52:57.396Z,13.57
2022-11-23T06:53:59.328Z,17.03
2022-11-23T06:55:01.595Z,14.61
2022-11-23T06:56:04.505Z,14.44
2022-11-23T06:57:09.971Z,17.06
2022-11-23T06:58:11.868Z,14.90
2022-11-23T06:59:13.759Z,17.63
2022-11-23T07:00:17.427Z,14.92
2022-11-23T07:01:19.506Z,16.56
2022-11-23T07:02:21.694Z,17.45
2022-11-23T07:03:24.171Z,16.39
2022-11-23T07:04:26.259Z,19.95
2022-11-23T07:05:28.220Z,15.81
2022-11-23T07:06:30.308Z,18.51
2022-11-23T07:07:33.097Z,15.65
2022-11-23T07:08:37.582Z,19.02
2022-11-23T07:09:39.473Z,18.48
2022-11-23T07:10:41.842Z,19.16
2022-11-23T07:11:43.717Z,15.31
2022-11-23T07:12:48.359Z,18.09
2022-11-23T07:13:50.258Z,15.75
2022-11-23T07:14:53.290Z,17.35
2022-11-23T07:15:57.111Z,15.56
2022-11-23T07:16:59.257Z,18.06
2022-11-23T07:18:02.179Z,18.37
2022-11-23T07:19:04.949Z,17.48
2022-11-23T07:20:10.166Z,18.30
2022-11-23T07:21:12.103Z,20.44
2022-11-23T07:22:13.987Z,20.99
2022-11-23T07:23:16.152Z,20.86
2022-11-23T07:24:19.249Z,25.96
2022-11-23T07:25:21.119Z,25.21
2022-11-23T07:26:23.124Z,19.29
2022-11-23T07:27:25.039Z,18.60
2022-11-23T07:28:27.644Z,16.95
2022-11-23T07:29:29.573Z,15.45
2022-11-23T07:30:35.961Z,14.81
2022-11-23T07:31:38.519Z,17.56
2022-11-23T07:32:40.405Z,15.68
2022-11-23T07:33:45.844Z,14.04
2022-11-23T07:34:47.860Z,16.73
2022-11-23T07:35:49.966Z,14.51
2022-11-23T07:36:52.140Z,16.93
2022-11-23T07:37:54.421Z,16.68
2022-11-23T07:38:56.293Z,15.69
2022-11-23T07:39:58.743Z,17.67
2022-11-23T07:41:01.152Z,22.65
2022-11-23T07:42:30.989Z,20.31
2022-11-23T07:43:07.708Z,18.03
2022-11-23T07:44:10.761Z,17.93
2022-11-23T07:45:12.934Z,18.61
2022-11-23T07:46:14.907Z,15.97
2022-11-23T07:47:16.929Z,18.93
2022-11-23T07:48:18.880Z,20.47
2022-11-23T07:49:20.765Z,21.95
2022-11-23T07:50:22.727Z,20.71
2022-11-23T07:51:25.115Z,22.85
2022-11-23T07:52:27.376Z,21.15
2022-11-23T07:53:29.239Z,19.55
2022-11-23T07:54:31.111Z,19.41
2022-11-23T07:55:33.901Z,33.89
2022-11-23T07:56:35.912Z,28.56
2022-11-23T07:57:37.765Z,27.99
2022-11-23T07:58:40.424Z,23.25
2022-11-23T07:59:42.313Z,24.65
2022-11-23T08:00:44.410Z,22.87
2022-11-23T08:01:51.233Z,21.05
2022-11-23T08:03:19.210Z,17.43
2022-11-23T08:03:55.027Z,20.24
2022-11-23T08:04:56.881Z,17.71
2022-11-23T08:05:58.767Z,16.18
2022-11-23T08:07:00.747Z,16.22
2022-11-23T08:08:02.960Z,16.27
2022-11-23T08:09:04.816Z,15.56
2022-11-23T08:10:08.649Z,15.79
2022-11-23T08:11:11.396Z,16.36
2022-11-23T08:12:13.275Z,17.98
2022-11-23T08:13:15.231Z,15.37
2022-11-23T08:14:17.091Z,19.75
2022-11-23T08:15:19.078Z,23.27
2022-11-23T08:16:21.054Z,23.07
2022-11-23T08:17:22.929Z,60.65
2022-11-23T08:18:24.867Z,35.34
2022-11-23T08:19:26.721Z,25.29
2022-11-23T08:20:29.884Z,27.59
2022-11-23T08:21:31.756Z,27.42
2022-11-23T08:22:33.617Z,26.68
2022-11-23T08:23:35.477Z,23.53
2022-11-23T08:24:37.352Z,24.73
2022-11-23T08:25:39.212Z,32.17
2022-11-23T08:26:41.195Z,32.94
2022-11-23T08:27:43.067Z,22.55
2022-11-23T08:28:44.929Z,23.37
2022-11-23T08:29:46.797Z,22.71
2022-11-23T08:30:49.168Z,26.49
2022-11-23T08:31:51.438Z,25.19
2022-11-23T08:32:53.546Z,25.37
2022-11-23T08:33:58.895Z,25.02
2022-11-23T08:34:59.490Z,24.18
2022-11-23T08:36:06.764Z,29.37
2022-11-23T08:37:09.890Z,25.06
2022-11-23T08:38:11.878Z,26.21
2022-11-23T08:39:14.286Z,26.13
2022-11-23T08:40:20.647Z,21.16
2022-11-23T08:41:20.955Z,21.09
2022-11-23T08:42:23.630Z,17.31
2022-11-23T08:43:26.135Z,21.08
2022-11-23T08:44:28.314Z,24.75
2022-11-23T08:45:31.423Z,37.87
2022-11-23T08:46:33.543Z,33.88
2022-11-23T08:47:35.715Z,35.96
2022-11-23T08:48:37.574Z,44.61
2022-11-23T08:49:39.430Z,32.65
2022-11-23T08:50:41.507Z,34.23
2022-11-23T08:51:48.563Z,36.13
2022-11-23T08:52:47.164Z,32.52
2022-11-23T08:53:50.004Z,35.36
2022-11-23T08:54:51.885Z,32.23
2022-11-23T08:55:53.735Z,26.71
2022-11-23T08:56:57.472Z,29.25
2022-11-23T08:57:59.726Z,29.91
2022-11-23T08:59:01.735Z,26.57
2022-11-23T09:00:05.955Z,30.71
2022-11-23T09:01:13.424Z,31.40
2022-11-23T09:02:16.312Z,35.19
2022-11-23T09:03:18.299Z,33.63
2022-11-23T09:04:20.947Z,31.66
2022-11-23T09:05:23.057Z,35.50
2022-11-23T09:06:25.013Z,29.75
2022-11-23T09:07:26.954Z,30.27
2022-11-23T09:08:29.472Z,30.89
2022-11-23T09:09:31.433Z,30.43
2022-11-23T09:10:33.518Z,28.17
2022-11-23T09:11:36.597Z,30.65
2022-11-23T09:12:38.452Z,31.73
2022-11-23T09:13:40.653Z,30.75
2022-11-23T09:14:43.031Z,34.37
2022-11-23T09:15:45.112Z,35.99
2022-11-23T09:16:47.381Z,36.64
2022-11-23T09:17:49.266Z,37.25
2022-11-23T09:18:56.351Z,40.24
2022-11-23T09:19:58.874Z,47.28
2022-11-23T09:21:03.282Z,55.41
2022-11-23T09:22:05.386Z,46.45
2022-11-23T09:23:13.931Z,54.50
2022-11-23T09:24:15.762Z,49.77
2022-11-23T09:25:18.539Z,57.01
2022-11-23T09:26:20.511Z,46.69
2022-11-23T09:27:22.385Z,46.13
2022-11-23T09:28:24.257Z,51.58
2022-11-23T09:29:26.950Z,51.32
2022-11-23T09:30:29.222Z,52.01
2022-11-23T09:31:31.367Z,51.66
2022-11-23T09:32:33.315Z,49.89
2022-11-23T09:33:35.184Z,50.22
2022-11-23T09:34:37.633Z,51.93
2022-11-23T09:35:43.841Z,49.57
2022-11-23T09:36:44.266Z,47.78
2022-11-23T09:37:46.122Z,75.03
2022-11-23T09:38:56.542Z,46.46
2022-11-23T09:39:56.738Z,45.67
2022-11-23T09:42:24.504Z,41.01
2022-11-23T09:43:39.429Z,38.54
2022-11-23T09:45:04.220Z,37.77
2022-11-23T09:46:15.933Z,39.94
2022-11-23T09:48:43.510Z,45.01
2022-11-23T09:50:03.837Z,45.44
2022-11-23T09:51:18.908Z,43.73
2022-11-23T09:52:23.628Z,45.57
2022-11-23T09:55:45.252Z,52.74
2022-11-23T09:56:50.441Z,50.81
2022-11-23T09:57:56.187Z,54.05
2022-11-23T09:59:01.716Z,48.74
2022-11-23T10:00:07.377Z,51.04
